Reno, NV (89501)

1:45 PM PST on November 28, 2014 (GMT -0800)
UNR Campus, LMR Roof | Change Station
CLOSE
Current Station
Personal Weather Station
Location: Reno, NV
Elevation: 4570 ft
Nearby Weather Stations
Active Advisory: Wind Advisory, Special Statement Active Notice: Record Report

Elev 4570 ft 39.54 °N, 119.81 °W | Updated 6 seconds ago

Scattered Clouds
Scattered Clouds
64.8 °F
Feels Like 64.8 °F
N
10.9
Wind Variable Wind from SW
Gusts 24.8 mph

Today
High -- | Low -- °F
--% Chance of Precip.
Yesterday
High -- | Low -- °F
Precip. -- in
6:57 AM 4:36 PM
Waxing Crescent, 44% visible
Pressure 29.80 in
Visibility 10.0 miles
Clouds Few 10000 ft
Scattered Clouds 15000 ft
Dew Point -6 °F
Humidity 5%
Rainfall 0.00 in
Snow Depth Not available.
UV 2 out of 12
Pollen 2.40 out of 12
Air Quality Not available.
Flu Activity Not available.
METAR KRNO 282055Z 24017G33KT 10SM FEW100 SCT150 19/M28 A2989 RMK AO2 PK WND 26039/2020 SLP091 VIRGA ACSL NE DSNT SE T01891278 58026

More Conditions Fewer Conditions

Pressure 29.80 in
Visibility 10.0 miles
Clouds Few 10000 ft
Scattered Clouds 15000 ft
Dew Point -6 °F
Humidity 5%
Rainfall 0.00 in
Snow Depth Not available.
UV 2 out of 12
Pollen 2.40 out of 12
Air Quality Not available.
Flu Activity Not available.
METAR KRNO 282055Z 24017G33KT 10SM FEW100 SCT150 19/M28 A2989 RMK AO2 PK WND 26039/2020 SLP091 VIRGA ACSL NE DSNT SE T01891278 58026

More Conditions Fewer Conditions

10-Day Weather Forecast

Almanac

Astronomy

Nov. 28, 2014 Rise Set
Actual Time
Civil Twilight
Nautical Twilight
Astronomical Twilight
Moon
Length of Visible Light
Length of Day
Tomorrow will be .
, % of the Moon is Illuminated

Today's Extremes

State Highs State Lows

Community

WunderPhotos

Upload Photos

1,774,310 photos uploaded!

WunderBlogs® & News

Nearby

Air Quality

  Air Quality AQ Index Pollutant
Not available.

Snow Depth

Station Depth Elevation

Earthquake Activity

City Distance Mag. Time & Date
Minimum magnitude displayed is 2.5.

Coastal Water Temperatures

Place Temperature

Nearby Weather Stations